CAL132 RCKH-ROAH
Flight info
| Callsign | CAL132 |
|---|---|
| Flight time | N/A |
| Altitude | 37000 |
| Route | TNN1H TNN W4 ANLOT M750 KUDOS R595 SEDKU Y573 MJC Y57 VELNO |
| Aircraft | B738/M-SDE2E3FGHIRWXY/LB1 |
Departure
| Time | 2026-04-25 10:52 |
|---|---|
| Airport | Kaohsiung International Airport (RCKH) |
Arrival
| Time | N/A |
|---|---|
| Airport | Naha International Airport (ROAH) |
| Time | Latitude | Longitude | Altitude | Speed | Heading |
|---|---|---|---|---|---|
| 2026-04-25 10:23 | 22.57266 | 120.34223 | 0 ft | 0 kts | 271° |
| 2026-04-25 10:24 | 22.57266 | 120.34227 | 0 ft | 0 kts | 271° |
| 2026-04-25 10:42 | 22.57266 | 120.34229 | 37 ft | 2 kts | 271° |
| 2026-04-25 10:42 | 22.57266 | 120.34256 | 32 ft | 4 kts | 271° |
| 2026-04-25 10:42 | 22.57266 | 120.34286 | 37 ft | 4 kts | 267° |
| 2026-04-25 10:43 | 22.57270 | 120.34314 | 36 ft | 4 kts | 240° |
| 2026-04-25 10:43 | 22.57284 | 120.34325 | 35 ft | 4 kts | 181° |
| 2026-04-25 10:43 | 22.57311 | 120.34325 | 37 ft | 4 kts | 181° |
| 2026-04-25 10:43 | 22.57338 | 120.34326 | 37 ft | 4 kts | 180° |
| 2026-04-25 10:44 | 22.57366 | 120.34326 | 37 ft | 4 kts | 180° |
| 2026-04-25 10:44 | 22.57388 | 120.34325 | 36 ft | 4 kts | 145° |
| 2026-04-25 10:44 | 22.57400 | 120.34303 | 34 ft | 4 kts | 101° |
| 2026-04-25 10:44 | 22.57403 | 120.34275 | 33 ft | 3 kts | 92° |
| 2026-04-25 10:45 | 22.57404 | 120.34249 | 34 ft | 2 kts | 91° |
| 2026-04-25 10:45 | 22.57404 | 120.34248 | 34 ft | 1 kts | 91° |
| 2026-04-25 10:46 | 22.57404 | 120.34251 | 34 ft | 2 kts | 91° |
| 2026-04-25 10:47 | 22.57403 | 120.34281 | 33 ft | 6 kts | 91° |
| 2026-04-25 10:47 | 22.57401 | 120.34349 | 35 ft | 11 kts | 91° |
| 2026-04-25 10:47 | 22.57398 | 120.34451 | 37 ft | 16 kts | 91° |
| 2026-04-25 10:47 | 22.57395 | 120.34561 | 37 ft | 13 kts | 92° |
| 2026-04-25 10:48 | 22.57451 | 120.34615 | 36 ft | 13 kts | 2° |
| 2026-04-25 10:48 | 22.57534 | 120.34595 | 38 ft | 12 kts | 318° |
| 2026-04-25 10:48 | 22.57555 | 120.34509 | 38 ft | 12 kts | 273° |
| 2026-04-25 10:48 | 22.57558 | 120.34419 | 38 ft | 13 kts | 270° |
| 2026-04-25 10:49 | 22.57559 | 120.34303 | 38 ft | 19 kts | 272° |
| 2026-04-25 10:49 | 22.57566 | 120.34152 | 38 ft | 20 kts | 272° |
| 2026-04-25 10:49 | 22.57571 | 120.34000 | 37 ft | 20 kts | 272° |
| 2026-04-25 10:49 | 22.57576 | 120.33856 | 35 ft | 19 kts | 270° |
| 2026-04-25 10:50 | 22.57578 | 120.33715 | 37 ft | 18 kts | 271° |
| 2026-04-25 10:50 | 22.57580 | 120.33579 | 37 ft | 18 kts | 273° |
| 2026-04-25 10:50 | 22.57658 | 120.33493 | 37 ft | 17 kts | 349° |
| 2026-04-25 10:50 | 22.57757 | 120.33530 | 37 ft | 17 kts | 75° |
| 2026-04-25 10:51 | 22.57760 | 120.33651 | 37 ft | 16 kts | 94° |
| 2026-04-25 10:51 | 22.57751 | 120.33797 | 38 ft | 38 kts | 94° |
| 2026-04-25 10:51 | 22.57731 | 120.34351 | 39 ft | 106 kts | 92° |
| 2026-04-25 10:51 | 22.57700 | 120.35358 | 49 ft | 158 kts | 91° |
| 2026-04-25 10:52 | 22.57623 | 120.36569 | 681 ft | 155 kts | 91° |
| 2026-04-25 10:52 | 22.57461 | 120.37713 | 1268 ft | 167 kts | 113° |
| 2026-04-25 10:52 | 22.56553 | 120.38464 | 1780 ft | 172 kts | 172° |
| 2026-04-25 10:52 | 22.55323 | 120.38211 | 2323 ft | 198 kts | 205° |
| 2026-04-25 10:53 | 22.53993 | 120.37540 | 2802 ft | 218 kts | 204° |
| 2026-04-25 10:53 | 22.52588 | 120.36861 | 3498 ft | 223 kts | 204° |
| 2026-04-25 10:53 | 22.51162 | 120.36178 | 4328 ft | 226 kts | 205° |
| 2026-04-25 10:53 | 22.49747 | 120.35506 | 5277 ft | 224 kts | 205° |
| 2026-04-25 10:54 | 22.48294 | 120.34820 | 6236 ft | 225 kts | 205° |
| 2026-04-25 10:54 | 22.47343 | 120.34369 | 6802 ft | 226 kts | 207° |
| 2026-04-25 10:54 | 22.45873 | 120.32828 | 7903 ft | 225 kts | 249° |
| 2026-04-25 10:54 | 22.45655 | 120.31122 | 8458 ft | 245 kts | 277° |
| 2026-04-25 10:55 | 22.46273 | 120.29297 | 8795 ft | 272 kts | 295° |
| 2026-04-25 10:55 | 22.47156 | 120.27445 | 9560 ft | 280 kts | 295° |
| 2026-04-25 10:55 | 22.48048 | 120.25554 | 10382 ft | 286 kts | 294° |
| 2026-04-25 10:55 | 22.48984 | 120.23546 | 10639 ft | 313 kts | 294° |
| 2026-04-25 10:56 | 22.49981 | 120.21390 | 10899 ft | 335 kts | 294° |
| 2026-04-25 10:56 | 22.51100 | 120.19138 | 11503 ft | 346 kts | 302° |
| 2026-04-25 10:56 | 22.52890 | 120.17317 | 12279 ft | 357 kts | 326° |
| 2026-04-25 10:56 | 22.55196 | 120.16338 | 13049 ft | 368 kts | 345° |
| 2026-04-25 10:57 | 22.57797 | 120.16247 | 13747 ft | 380 kts | 0° |
| 2026-04-25 10:57 | 22.60448 | 120.16464 | 14356 ft | 386 kts | 1° |
| 2026-04-25 10:57 | 22.63149 | 120.16696 | 14958 ft | 391 kts | 1° |
| 2026-04-25 10:57 | 22.65879 | 120.16932 | 15578 ft | 396 kts | 1° |
| 2026-04-25 10:58 | 22.68641 | 120.17163 | 16191 ft | 400 kts | 1° |
| 2026-04-25 10:58 | 22.71435 | 120.17388 | 16799 ft | 405 kts | 0° |
| 2026-04-25 10:58 | 22.74266 | 120.17609 | 17416 ft | 410 kts | 0° |
| 2026-04-25 10:58 | 22.77131 | 120.17830 | 17995 ft | 415 kts | 0° |
| 2026-04-25 10:59 | 22.80032 | 120.18050 | 18525 ft | 420 kts | 0° |
| 2026-04-25 10:59 | 22.82962 | 120.18273 | 19043 ft | 424 kts | 0° |
| 2026-04-25 10:59 | 22.85909 | 120.18497 | 19603 ft | 425 kts | 360° |
| 2026-04-25 10:59 | 22.88878 | 120.18723 | 20150 ft | 428 kts | 359° |
| 2026-04-25 11:00 | 22.91858 | 120.18949 | 20677 ft | 430 kts | 359° |
| 2026-04-25 11:00 | 22.94855 | 120.19177 | 21191 ft | 433 kts | 359° |
| 2026-04-25 11:00 | 22.97867 | 120.19406 | 21706 ft | 435 kts | 359° |
| 2026-04-25 11:00 | 23.00902 | 120.19637 | 22194 ft | 438 kts | 359° |
| 2026-04-25 11:01 | 23.03954 | 120.19870 | 22673 ft | 441 kts | 359° |
| 2026-04-25 11:01 | 23.07022 | 120.20104 | 23137 ft | 443 kts | 358° |
| 2026-04-25 11:01 | 23.10115 | 120.20340 | 23586 ft | 446 kts | 358° |
| 2026-04-25 11:01 | 23.13220 | 120.20595 | 23940 ft | 450 kts | 1° |
| 2026-04-25 11:02 | 23.16309 | 120.21342 | 24261 ft | 462 kts | 13° |
| 2026-04-25 11:02 | 23.19356 | 120.22486 | 24642 ft | 465 kts | 14° |
| 2026-04-25 11:02 | 23.22410 | 120.23679 | 24990 ft | 468 kts | 14° |
| 2026-04-25 11:02 | 23.25485 | 120.24869 | 25314 ft | 470 kts | 14° |
| 2026-04-25 11:03 | 23.28547 | 120.26026 | 25653 ft | 472 kts | 14° |
| 2026-04-25 11:03 | 23.31664 | 120.27179 | 25977 ft | 474 kts | 13° |
| 2026-04-25 11:03 | 23.34809 | 120.28326 | 26308 ft | 477 kts | 13° |
| 2026-04-25 11:03 | 23.37964 | 120.29470 | 26629 ft | 479 kts | 13° |
| 2026-04-25 11:04 | 23.41143 | 120.30620 | 26962 ft | 482 kts | 13° |
| 2026-04-25 11:04 | 23.44339 | 120.31779 | 27257 ft | 484 kts | 13° |
| 2026-04-25 11:04 | 23.47546 | 120.32943 | 27562 ft | 487 kts | 13° |
| 2026-04-25 11:04 | 23.49680 | 120.33720 | 27760 ft | 489 kts | 13° |
| 2026-04-25 11:05 | 23.54007 | 120.35296 | 28156 ft | 492 kts | 13° |
| 2026-04-25 11:05 | 23.57260 | 120.36481 | 28460 ft | 494 kts | 13° |
| 2026-04-25 11:05 | 23.60491 | 120.37658 | 28754 ft | 496 kts | 12° |
| 2026-04-25 11:05 | 23.63771 | 120.38853 | 29035 ft | 498 kts | 12° |
| 2026-04-25 11:06 | 23.67069 | 120.40056 | 29307 ft | 500 kts | 12° |
| 2026-04-25 11:06 | 23.70380 | 120.41264 | 29583 ft | 502 kts | 12° |
| 2026-04-25 11:06 | 23.73701 | 120.42477 | 29848 ft | 505 kts | 12° |
| 2026-04-25 11:06 | 23.77037 | 120.43697 | 30104 ft | 506 kts | 12° |
| 2026-04-25 11:07 | 23.80387 | 120.44923 | 30386 ft | 507 kts | 12° |
| 2026-04-25 11:07 | 23.83725 | 120.46145 | 30730 ft | 505 kts | 12° |
| 2026-04-25 11:07 | 23.87045 | 120.47391 | 31121 ft | 505 kts | 14° |
| 2026-04-25 11:07 | 23.90240 | 120.49058 | 31480 ft | 513 kts | 24° |
| 2026-04-25 11:08 | 23.93119 | 120.51152 | 31815 ft | 519 kts | 32° |
| 2026-04-25 11:08 | 23.95823 | 120.53810 | 32121 ft | 525 kts | 39° |
| 2026-04-25 11:08 | 23.98420 | 120.56622 | 32432 ft | 526 kts | 40° |
| 2026-04-25 11:08 | 24.01014 | 120.59451 | 32738 ft | 526 kts | 40° |
| 2026-04-25 11:09 | 24.03609 | 120.62264 | 33059 ft | 526 kts | 39° |
| 2026-04-25 11:09 | 24.06220 | 120.65065 | 33392 ft | 525 kts | 39° |
| 2026-04-25 11:09 | 24.08842 | 120.67852 | 33719 ft | 525 kts | 38° |
| 2026-04-25 11:09 | 24.11469 | 120.70632 | 34027 ft | 526 kts | 38° |
| 2026-04-25 11:10 | 24.14102 | 120.73412 | 34296 ft | 526 kts | 38° |
| 2026-04-25 11:10 | 24.15848 | 120.75256 | 34478 ft | 526 kts | 38° |
| 2026-04-25 11:10 | 24.19373 | 120.78985 | 34857 ft | 526 kts | 38° |
| 2026-04-25 11:10 | 24.22003 | 120.81771 | 35132 ft | 526 kts | 38° |
| 2026-04-25 11:11 | 24.24634 | 120.84562 | 35396 ft | 527 kts | 38° |
| 2026-04-25 11:11 | 24.27267 | 120.87357 | 35646 ft | 527 kts | 38° |
| 2026-04-25 11:11 | 24.29902 | 120.90156 | 35895 ft | 528 kts | 38° |